地図

経路データ

SID SEASON NUMBER BASIN SUBBASIN NAME ISO_TIME NATURE LAT LON WMO_WIND WMO_PRES WMO_AGENCY TRACK_TYPE DIST2LAND LANDFALL IFLAG USA_AGENCY USA_ATCF_ID USA_LAT USA_LON USA_RECORD USA_STATUS USA_WIND USA_PRES USA_SSHS USA_R34_NE USA_R34_SE USA_R34_SW USA_R34_NW USA_R50_NE USA_R50_SE USA_R50_SW USA_R50_NW USA_R64_NE USA_R64_SE USA_R64_SW USA_R64_NW USA_POCI USA_ROCI USA_RMW USA_EYE TOKYO_LAT TOKYO_LON TOKYO_GRADE TOKYO_WIND TOKYO_PRES TOKYO_R50_DIR TOKYO_R50_LONG TOKYO_R50_SHORT TOKYO_R30_DIR TOKYO_R30_LONG TOKYO_R30_SHORT TOKYO_LAND CMA_LAT CMA_LON CMA_CAT CMA_WIND CMA_PRES HKO_LAT HKO_LON HKO_CAT HKO_WIND HKO_PRES NEWDELHI_LAT NEWDELHI_LON NEWDELHI_GRADE NEWDELHI_WIND NEWDELHI_PRES NEWDELHI_CI NEWDELHI_DP NEWDELHI_POCI REUNION_LAT REUNION_LON REUNION_TYPE REUNION_WIND REUNION_PRES REUNION_TNUM REUNION_CI REUNION_RMW REUNION_R34_NE REUNION_R34_SE REUNION_R34_SW REUNION_R34_NW REUNION_R50_NE REUNION_R50_SE REUNION_R50_SW REUNION_R50_NW REUNION_R64_NE REUNION_R64_SE REUNION_R64_SW REUNION_R64_NW BOM_LAT BOM_LON BOM_TYPE BOM_WIND BOM_PRES BOM_TNUM BOM_CI BOM_RMW BOM_R34_NE BOM_R34_SE BOM_R34_SW BOM_R34_NW BOM_R50_NE BOM_R50_SE BOM_R50_SW BOM_R50_NW BOM_R64_NE BOM_R64_SE BOM_R64_SW BOM_R64_NW BOM_ROCI BOM_POCI BOM_EYE BOM_POS_METHOD BOM_PRES_METHOD NADI_LAT NADI_LON NADI_CAT NADI_WIND NADI_PRES WELLINGTON_LAT WELLINGTON_LON WELLINGTON_WIND WELLINGTON_PRES DS824_LAT DS824_LON DS824_STAGE DS824_WIND DS824_PRES TD9636_LAT TD9636_LON TD9636_STAGE TD9636_WIND TD9636_PRES TD9635_LAT TD9635_LON TD9635_WIND TD9635_PRES TD9635_ROCI NEUMANN_LAT NEUMANN_LON NEUMANN_CLASS NEUMANN_WIND NEUMANN_PRES MLC_LAT MLC_LON MLC_CLASS MLC_WIND MLC_PRES USA_GUST BOM_GUST BOM_GUST_PER REUNION_GUST REUNION_GUST_PER USA_SEAHGT USA_SEARAD_NE USA_SEARAD_SE USA_SEARAD_SW USA_SEARAD_NW STORM_SPEED STORM_DIR
1950290N22318 1950 95 NA NA NOT_NAMED 1950-10-17 06:00:00 TS 22.0000 -42.0000 35 hurdat_atl main 2199 2194 O_____________ hurdat_atl AL121950 22.0000 -42.0000 TS 35 0 8 308
1950290N22318 1950 95 NA NA NOT_NAMED 1950-10-17 09:00:00 TS 22.2627 -42.3572 main 2206 2201 P_____________ AL121950 22.2627 -42.3572 TS 35 0 8 308
1950290N22318 1950 95 NA NA NOT_NAMED 1950-10-17 12:00:00 TS 22.5000 -42.7000 35 hurdat_atl main 2209 2204 O_____________ hurdat_atl AL121950 22.5000 -42.7000 TS 35 0 8 306
1950290N22318 1950 95 NA NA NOT_NAMED 1950-10-17 15:00:00 TS 22.6999 -43.0152 main 2213 2208 P_____________ AL121950 22.6999 -43.0152 TS 35 0 7 306
1950290N22318 1950 95 NA NA NOT_NAMED 1950-10-17 18:00:00 TS 22.9000 -43.3000 35 hurdat_atl main 2218 2213 O_____________ hurdat_atl AL121950 22.9000 -43.3000 TS 35 0 6 311
1950290N22318 1950 95 NA NA NOT_NAMED 1950-10-17 21:00:00 TS 23.1198 -43.5428 main 2228 2223 P_____________ AL121950 23.1198 -43.5428 TS 35 0 7 317
1950290N22318 1950 95 NA NA NOT_NAMED 1950-10-18 00:00:00 TS 23.4000 -43.8000 35 hurdat_atl main 2244 2244 O_____________ hurdat_atl AL121950 23.4000 -43.8000 TS 35 0 9 319
1950290N22318 1950 95 NA NA NOT_NAMED 1950-10-18 03:00:00 TS 23.7852 -44.1646 main 2266 2266 P_____________ AL121950 23.7852 -44.1646 TS 37 0 10 321
1950290N22318 1950 95 NA NA NOT_NAMED 1950-10-18 06:00:00 TS 24.2000 -44.5000 40 hurdat_atl main 2276 2264 O_____________ hurdat_atl AL121950 24.2000 -44.5000 TS 40 0 9 328
1950290N22318 1950 95 NA NA NOT_NAMED 1950-10-18 09:00:00 TS 24.5724 -44.6952 main 2267 2259 P_____________ AL121950 24.5724 -44.6952 TS 40 0 8 339
1950290N22318 1950 95 NA NA NOT_NAMED 1950-10-18 12:00:00 TS 24.9000 -44.8000 40 hurdat_atl main 2265 2261 O_____________ hurdat_atl AL121950 24.9000 -44.8000 TS 40 0 6 344
1950290N22318 1950 95 NA NA NOT_NAMED 1950-10-18 15:00:00 TS 25.1650 -44.8801 main 2264 2264 P_____________ AL121950 25.1650 -44.8801 TS 40 0 5 350
1950290N22318 1950 95 NA NA NOT_NAMED 1950-10-18 18:00:00 TS 25.4000 -44.9000 40 hurdat_atl main 2270 2270 O_____________ hurdat_atl AL121950 25.4000 -44.9000 TS 40 0 5 3
1950290N22318 1950 95 NA NA NOT_NAMED 1950-10-18 21:00:00 TS 25.6425 -44.8725 main 2276 2276 P_____________ AL121950 25.6425 -44.8725 TS 42 0 5 10
1950290N22318 1950 95 NA NA NOT_NAMED 1950-10-19 00:00:00 TS 25.9000 -44.8000 45 hurdat_atl main 2296 2296 O_____________ hurdat_atl AL121950 25.9000 -44.8000 TS 45 0 6 12
1950290N22318 1950 95 NA NA NOT_NAMED 1950-10-19 03:00:00 TS 26.1849 -44.7447 main 2315 2315 P_____________ AL121950 26.1849 -44.7447 TS 45 0 6 17
1950290N22318 1950 95 NA NA NOT_NAMED 1950-10-19 06:00:00 TS 26.5000 -44.6000 45 hurdat_atl main 2335 2335 O_____________ hurdat_atl AL121950 26.5000 -44.6000 TS 45 0 8 32
1950290N22318 1950 95 NA NA NOT_NAMED 1950-10-19 09:00:00 TS 26.8200 -44.3022 main 2339 2308 P_____________ AL121950 26.8200 -44.3022 TS 45 0 9 42
1950290N22318 1950 95 NA NA NOT_NAMED 1950-10-19 12:00:00 TS 27.2000 -43.9000 45 hurdat_atl main 2308 2276 O_____________ hurdat_atl AL121950 27.2000 -43.9000 TS 45 0 11 40
1950290N22318 1950 95 NA NA NOT_NAMED 1950-10-19 15:00:00 TS 27.6773 -43.4872 main 2268 2233 P_____________ AL121950 27.6773 -43.4872 TS 47 0 13 39
1950290N22318 1950 95 NA NA NOT_NAMED 1950-10-19 18:00:00 TS 28.2000 -43.0000 50 hurdat_atl main 2233 2198 O_____________ hurdat_atl AL121950 28.2000 -43.0000 TS 50 0 14 42
1950290N22318 1950 95 NA NA NOT_NAMED 1950-10-19 21:00:00 TS 28.7073 -42.4372 main 2202 2173 P_____________ AL121950 28.7073 -42.4372 TS 50 0 15 46
1950290N22318 1950 95 NA NA NOT_NAMED 1950-10-20 00:00:00 TS 29.2000 -41.8000 50 hurdat_atl main 2173 2153 O_____________ hurdat_atl AL121950 29.2000 -41.8000 TS 50 0 15 50
1950290N22318 1950 95 NA NA NOT_NAMED 1950-10-20 03:00:00 TS 29.6724 -41.1148 main 2151 2137 P_____________ AL121950 29.6724 -41.1148 TS 52 0 15 53
1950290N22318 1950 95 NA NA NOT_NAMED 1950-10-20 06:00:00 TS 30.1000 -40.4000 55 hurdat_atl main 2141 2134 O_____________ hurdat_atl AL121950 30.1000 -40.4000 TS 55 0 15 57
1950290N22318 1950 95 NA NA NOT_NAMED 1950-10-20 09:00:00 TS 30.4720 -39.7068 main 2134 2133 P_____________ AL121950 30.4720 -39.7068 TS 55 0 14 60
1950290N22318 1950 95 NA NA NOT_NAMED 1950-10-20 12:00:00 TS 30.8000 -39.0000 55 hurdat_atl main 2138 2093 O_____________ hurdat_atl AL121950 30.8000 -39.0000 TS 55 0 14 63
1950290N22318 1950 95 NA NA NOT_NAMED 1950-10-20 15:00:00 TS 31.0919 -38.2714 main 2093 2020 P_____________ AL121950 31.0919 -38.2714 TS 55 0 14 65
1950290N22318 1950 95 NA NA NOT_NAMED 1950-10-20 18:00:00 TS 31.4000 -37.5000 55 hurdat_atl main 2020 1947 O_____________ hurdat_atl AL121950 31.4000 -37.5000 TS 55 0 15 64
1950290N22318 1950 95 NA NA NOT_NAMED 1950-10-20 21:00:00 TS 31.7622 -36.6642 main 1949 1870 P_____________ AL121950 31.7622 -36.6642 TS 57 0 17 61
1950290N22318 1950 95 NA NA NOT_NAMED 1950-10-21 00:00:00 TS 32.2000 -35.8000 60 hurdat_atl main 1870 1804 O_____________ hurdat_atl AL121950 32.2000 -35.8000 TS 60 0 17 58
1950290N22318 1950 95 NA NA NOT_NAMED 1950-10-21 03:00:00 TS 32.6824 -34.9263 main 1797 1738 P_____________ AL121950 32.6824 -34.9263 TS 60 0 18 52
1950290N22318 1950 95 NA NA NOT_NAMED 1950-10-21 06:00:00 TS 33.3000 -34.1000 60 hurdat_atl main 1738 1701 O_____________ hurdat_atl AL121950 33.3000 -34.1000 TS 60 0 20 42
1950290N22318 1950 95 NA NA NOT_NAMED 1950-10-21 09:00:00 TS 34.1723 -33.3343 main 1695 1675 P_____________ AL121950 34.1723 -33.3343 TS 60 0 21 34
1950290N22318 1950 95 NA NA NOT_NAMED 1950-10-21 12:00:00 TS 35.0000 -32.7000 60 hurdat_atl main 1675 1659 O_____________ hurdat_atl AL121950 35.0000 -32.7000 TS 60 0 16 35
1950290N22318 1950 95 NA NA NOT_NAMED 1950-10-21 15:00:00 TS 35.4518 -32.2449 main 1655 1644 P_____________ AL121950 35.4518 -32.2449 TS 60 0 10 39
1950290N22318 1950 95 NA NA NOT_NAMED 1950-10-21 18:00:00 TS 35.8000 -31.9000 60 hurdat_atl main 1645 1639 O_____________ hurdat_atl AL121950 35.8000 -31.9000 TS 60 0 10 34
1950290N22318 1950 95 NA NA NOT_NAMED 1950-10-21 21:00:00 TS 36.2772 -31.5567 main 1647 1637 P_____________ AL121950 36.2772 -31.5567 TS 60 0 11 29
1950290N22318 1950 95 NA NA NOT_NAMED 1950-10-22 00:00:00 TS 36.8000 -31.2000 60 hurdat_atl main 1644 1639 O_____________ hurdat_atl AL121950 36.8000 -31.2000 TS 60 0 12 31
1950290N22318 1950 95 NA NA NOT_NAMED 1950-10-22 03:00:00 TS 37.3273 -30.7791 main 1643 1640 P_____________ AL121950 37.3273 -30.7791 TS 57 0 13 33
1950290N22318 1950 95 NA NA NOT_NAMED 1950-10-22 06:00:00 TS 37.9000 -30.3000 55 hurdat_atl main 1646 1645 O_____________ hurdat_atl AL121950 37.9000 -30.3000 TS 55 0 15 30
1950290N22318 1950 95 NA NA NOT_NAMED 1950-10-22 09:00:00 TS 38.6240 -29.8188 main 1660 1660 P_____________ AL121950 38.6240 -29.8188 TS 55 0 16 33
1950290N22318 1950 95 NA NA NOT_NAMED 1950-10-22 12:00:00 TS 39.2000 -29.2000 55 hurdat_atl main 1665 1624 O_____________ hurdat_atl AL121950 39.2000 -29.2000 TS 55 0 14 56
1950290N22318 1950 95 NA NA NOT_NAMED 1950-10-22 15:00:00 TS 39.4011 -28.3144 main 1616 1539 P_____________ AL121950 39.4011 -28.3144 TS 52 0 14 86
1950290N22318 1950 95 NA NA NOT_NAMED 1950-10-22 18:00:00 TS 39.3000 -27.4000 50 hurdat_atl main 1539 1482 O_____________ hurdat_atl AL121950 39.3000 -27.4000 TS 50 0 13 107
1950290N22318 1950 95 NA NA NOT_NAMED 1950-10-22 21:00:00 TS 39.0165 -26.7042 main 1482 1433 P_____________ AL121950 39.0165 -26.7042 TS 50 0 12 125
1950290N22318 1950 95 NA NA NOT_NAMED 1950-10-23 00:00:00 TS 38.6000 -26.1000 50 hurdat_atl main 1433 1366 O_____________ hurdat_atl AL121950 38.6000 -26.1000 TS 50 0 13 130
1950290N22318 1950 95 NA NA NOT_NAMED 1950-10-23 03:00:00 TS 38.2074 -25.4702 main 1366 1298 P_____________ AL121950 38.2074 -25.4702 TS 47 0 12 130
1950290N22318 1950 95 NA NA NOT_NAMED 1950-10-23 06:00:00 TS 37.8000 -24.9000 45 hurdat_atl main 1298 1241 O_____________ hurdat_atl AL121950 37.8000 -24.9000 TS 45 0 12 134
1950290N22318 1950 95 NA NA NOT_NAMED 1950-10-23 09:00:00 TS 37.3995 -24.4283 main 1236 1179 P_____________ AL121950 37.3995 -24.4283 TS 42 0 11 138
1950290N22318 1950 95 NA NA NOT_NAMED 1950-10-23 12:00:00 TS 37.0000 -24.0000 40 hurdat_atl main 1179 1122 O_____________ hurdat_atl AL121950 37.0000 -24.0000 TS 40 0 11 138
1950290N22318 1950 95 NA NA NOT_NAMED 1950-10-23 15:00:00 TS 36.6000 -23.5352 main 1117 1060 P_____________ AL121950 36.6000 -23.5352 TS 40 0 11 138
1950290N22318 1950 95 NA NA NOT_NAMED 1950-10-23 18:00:00 TS 36.2000 -23.1000 40 hurdat_atl main 1060 1003 O_____________ hurdat_atl AL121950 36.2000 -23.1000 TS 40 0 10 140
1950290N22318 1950 95 NA NA NOT_NAMED 1950-10-23 21:00:00 TS 35.8074 -22.7128 main 1003 951 P_____________ AL121950 35.8074 -22.7128 TS 37 0 10 145
1950290N22318 1950 95 NA NA NOT_NAMED 1950-10-24 00:00:00 TS 35.4000 -22.4000 35 hurdat_atl main 951 904 O_____________ hurdat_atl AL121950 35.4000 -22.4000 TS 35 0 9 152
1950290N22318 1950 95 NA NA NOT_NAMED 1950-10-24 03:00:00 TS 34.9724 -22.1705 main 904 848 P_____________ AL121950 34.9724 -22.1705 TS 32 -1 10 160
1950290N22318 1950 95 NA NA NOT_NAMED 1950-10-24 06:00:00 TS 34.5000 -22.0000 30 hurdat_atl main 848 793 O_____________ hurdat_atl AL121950 34.5000 -22.0000 TD 30 -1 10 164
1950290N22318 1950 95 NA NA NOT_NAMED 1950-10-24 09:00:00 TS 33.9800 -21.8198 main 793 735 P_____________ AL121950 33.9800 -21.8198 TD 30 -1 11 167
1950290N22318 1950 95 NA NA NOT_NAMED 1950-10-24 12:00:00 TS 33.4000 -21.7000 30 hurdat_atl main 735 686 O_____________ hurdat_atl AL121950 33.4000 -21.7000 TD 30 -1 12 174
1950290N22318 1950 95 NA NA NOT_NAMED 1950-10-24 15:00:00 TS 32.7650 -21.6729 main 686 633 P_____________ AL121950 32.7650 -21.6729 TD 27 -1 13 179
1950290N22318 1950 95 NA NA NOT_NAMED 1950-10-24 18:00:00 TS 32.1000 -21.7000 25 hurdat_atl main 633 O_____________ hurdat_atl AL121950 32.1000 -21.7000 TD 25 -1 13 182

IBTrACS Databaseについて

本データベースは、米国NOAAが公開する1842年以降の世界の熱帯低気圧のベストトラックデータアーカイブInternational Best Track Archive for Climate Stewardship (IBTrACS)を、ウェブで閲覧しやすい形式に変換したものです。

最終更新日:2021-10-08